Houwa Maru — JL6394 — position and weather

sailwx.info

Track history (hours):
 
Tides and Currents Weather Stations Pressure Air Temp Water Temp Dewpoint Dewpoint Depression Visibility Wind Speed Wind Dir Waves Ship Positions

Houwa Maru

Last reported at 2016-Jun-30 09:33 UTC. Time now 2016-Jul-01 20:56 UTC.
Position N 35°13' E 139°47'.

Length 76 m.

Type: Ship. MMSI: 431500378.

Date/timePositionNaut miles runAvg speedWind from/ knotsBaromVisibWave heightAir tempDewpointWater temp
2016-Jun-30 09:33N 35°13' E 139°47'1110.5
2016-Jun-30 08:32N 35°23' E 139°42'8 8.2
2016-Jun-30 07:33N 35°31' E 139°46'0 0.1
2016-Jun-30 06:31N 35°31' E 139°45'0 0.0
2016-Jun-30 05:28N 35°31' E 139°45'0 0.0
2016-Jun-30 04:31N 35°31' E 139°45'0 0.0
2016-Jun-30 03:31N 35°31' E 139°45'0 0.0
2016-Jun-30 02:31N 35°31' E 139°45'0 0.0
2016-Jun-30 01:31N 35°31' E 139°45'0 0.0
2016-Jun-30 00:31N 35°31' E 139°45'0 0.0
2016-Jun-29 23:31N 35°31' E 139°45'0 0.0
2016-Jun-29 22:31N 35°31' E 139°45'0 0.4
2016-Jun-29 21:33N 35°31' E 139°46'3 2.4
2016-Jun-29 20:31N 35°29' E 139°48'0 0.0
2016-Jun-29 19:31N 35°29' E 139°48'0 0.0
2016-Jun-29 18:31N 35°29' E 139°48'0 0.0
2016-Jun-29 17:31N 35°29' E 139°48'0 0.0
2016-Jun-29 16:31N 35°29' E 139°48'0 0.0
2016-Jun-29 15:31N 35°29' E 139°48'0 0.0
2016-Jun-29 14:31N 35°29' E 139°48'0 0.0
2016-Jun-29 13:31N 35°29' E 139°48'0 0.0
2016-Jun-29 12:31N 35°29' E 139°48'0 0.0
2016-Jun-29 11:31N 35°29' E 139°48'0 0.0
2016-Jun-29 10:31N 35°29' E 139°48'0 0.0
2016-Jun-29 09:31N 35°29' E 139°48'0 0.0
2016-Jun-29 08:34N 35°29' E 139°48'0 0.0
2016-Jun-29 07:31N 35°29' E 139°48'0 0.0
2016-Jun-29 06:31N 35°29' E 139°48'0 0.0
2016-Jun-29 05:31N 35°29' E 139°48'0 0.0
2016-Jun-29 04:31N 35°29' E 139°48'0 0.0
2016-Jun-29 03:31N 35°29' E 139°48'0 0.0
2016-Jun-29 02:32N 35°29' E 139°48'0 0.0
2016-Jun-29 01:33N 35°29' E 139°48'0 0.0
2016-Jun-29 00:33N 35°29' E 139°48'0 0.0
2016-Jun-28 23:32N 35°29' E 139°48'0 0.0
2016-Jun-28 22:32N 35°29' E 139°48'0 0.0
2016-Jun-28 21:32N 35°29' E 139°48'0 0.0
2016-Jun-28 20:32N 35°29' E 139°48'0 0.0
2016-Jun-28 19:32N 35°29' E 139°48'0 0.0
2016-Jun-28 18:32N 35°29' E 139°48'0 0.0
2016-Jun-28 17:32N 35°29' E 139°48'0 0.0
2016-Jun-28 16:32N 35°29' E 139°48'0 0.0
2016-Jun-28 15:32N 35°29' E 139°48'0 0.0
2016-Jun-28 14:32N 35°29' E 139°48'3 3.3
2016-Jun-28 13:33N 35°26' E 139°47'1110.2
2016-Jun-28 12:28N 35°15' E 139°47'242 8.6
2016-Jun-27 08:29N 34°12' E 135°03'2511.4
2016-Jun-27 06:19N 34°35' E 135°14'5 6.9
2016-Jun-27 05:33N 34°40' E 135°13'0 0.0
2016-Jun-27 04:33N 34°40' E 135°13'0 0.0
2016-Jun-27 03:27N 34°40' E 135°13'0 0.0
2016-Jun-27 02:33N 34°40' E 135°13'0 0.0
2016-Jun-27 01:27N 34°40' E 135°13'0 0.0
2016-Jun-27 00:33N 34°40' E 135°13'4 3.9
2016-Jun-26 23:32N 34°37' E 135°16'0 0.1
2016-Jun-26 22:13N 34°37' E 135°16'0 0.0
2016-Jun-26 21:31N 34°37' E 135°16'0 0.0
2016-Jun-26 20:19N 34°37' E 135°16'0 0.0
2016-Jun-26 19:31N 34°37' E 135°16'0 0.0
2016-Jun-26 18:25N 34°37' E 135°16'0 0.0
2016-Jun-26 17:31N 34°37' E 135°16'0 0.0
2016-Jun-26 16:31N 34°37' E 135°16'0 0.0
2016-Jun-26 15:31N 34°37' E 135°16'0 0.0
2016-Jun-26 14:31N 34°37' E 135°16'0 0.0
2016-Jun-26 13:31N 34°37' E 135°16'0 0.0
2016-Jun-26 12:31N 34°37' E 135°16'0 0.0
2016-Jun-26 08:25N 34°37' E 135°16'1 0.6
2016-Jun-26 07:25N 34°37' E 135°16'5 5.3
2016-Jun-26 06:32N 34°40' E 135°11'0 0.0
2016-Jun-26 05:23N 34°40' E 135°11'0 0.0
2016-Jun-26 04:29N 34°40' E 135°11'0 0.0
2016-Jun-26 03:23N 34°40' E 135°11'0 0.0
2016-Jun-26 02:29N 34°40' E 135°11'0 0.0
2016-Jun-26 01:29N 34°40' E 135°11'0 0.0
2016-Jun-26 00:29N 34°40' E 135°11'0 0.0
2016-Jun-25 23:29N 34°40' E 135°11'0 0.0
2016-Jun-25 22:23N 34°40' E 135°11'0 0.0
2016-Jun-25 21:29N 34°40' E 135°11'0 0.0
2016-Jun-25 20:23N 34°40' E 135°11'0 0.0
2016-Jun-25 19:29N 34°40' E 135°11'0 0.0
2016-Jun-25 18:29N 34°40' E 135°11'0 0.0
2016-Jun-25 17:29N 34°40' E 135°11'0 0.0
2016-Jun-25 16:29N 34°40' E 135°11'0 0.0
2016-Jun-25 15:23N 34°40' E 135°11'0 0.0
2016-Jun-25 14:29N 34°40' E 135°11'0 0.0
2016-Jun-25 13:29N 34°40' E 135°11'0 0.0
2016-Jun-25 12:23N 34°40' E 135°11'0 0.0
2016-Jun-25 11:23N 34°40' E 135°11'0 0.0
2016-Jun-25 10:29N 34°40' E 135°11'0 0.0
2016-Jun-25 09:17N 34°40' E 135°11'0 0.0
2016-Jun-25 08:29N 34°40' E 135°11'0 0.0
2016-Jun-25 07:29N 34°40' E 135°11'0 0.0
2016-Jun-25 06:29N 34°40' E 135°11'0 0.0
2016-Jun-25 04:29N 34°40' E 135°11'0 0.0
2016-Jun-25 03:29N 34°40' E 135°11'0 0.0
2016-Jun-25 02:29N 34°40' E 135°11'0 0.0
2016-Jun-25 01:29N 34°40' E 135°11'0 0.0
2016-Jun-25 00:23N 34°40' E 135°11'0 0.0
2016-Jun-24 23:23N 34°40' E 135°11'0 0.0
2016-Jun-24 22:29N 34°40' E 135°11'0 0.0
2016-Jun-24 21:29N 34°40' E 135°11'0 0.0
2016-Jun-24 20:29N 34°40' E 135°11'0 0.0
2016-Jun-24 19:23N 34°40' E 135°11'0 0.0
2016-Jun-24 18:29N 34°40' E 135°11'0 0.0
2016-Jun-24 17:29N 34°40' E 135°11'0 0.0
2016-Jun-24 16:29N 34°40' E 135°11'0 0.0
2016-Jun-24 15:29N 34°40' E 135°11'0 0.0
2016-Jun-24 14:29N 34°40' E 135°11'0 0.0
2016-Jun-24 13:29N 34°40' E 135°11'0 0.0
2016-Jun-24 12:29N 34°40' E 135°11'0 0.0
2016-Jun-24 11:11N 34°40' E 135°11'0 0.0
2016-Jun-24 10:29N 34°40' E 135°11'0 0.0
2016-Jun-24 09:29N 34°40' E 135°11'0 0.0
2016-Jun-24 08:29N 34°40' E 135°11'0 0.0
2016-Jun-24 07:29N 34°40' E 135°11'4 1.4
2016-Jun-24 04:33N 34°37' E 135°15'1 0.7
2016-Jun-24 03:32N 34°37' E 135°16'0 0.0
2016-Jun-24 02:20N 34°37' E 135°16'0 0.0
2016-Jun-24 01:32N 34°37' E 135°16'0 0.0
2016-Jun-24 00:26N 34°37' E 135°16'0 0.0
2016-Jun-23 23:26N 34°37' E 135°16'0 0.0
2016-Jun-23 22:32N 34°37' E 135°16'0 0.0
2016-Jun-23 21:32N 34°37' E 135°16'0 0.0
2016-Jun-23 20:26N 34°37' E 135°16'0 0.0
2016-Jun-23 19:32N 34°37' E 135°16'0 0.0
2016-Jun-23 18:26N 34°37' E 135°16'0 0.0
2016-Jun-23 17:32N 34°37' E 135°16'0 0.0
2016-Jun-23 16:26N 34°37' E 135°16'0 0.0
2016-Jun-23 15:26N 34°37' E 135°16'0 0.0
2016-Jun-23 14:26N 34°37' E 135°16'0 0.0
2016-Jun-23 13:32N 34°37' E 135°16'0 0.0
2016-Jun-23 12:32N 34°37' E 135°16'0 0.0
2016-Jun-23 11:32N 34°37' E 135°16'0 0.0
2016-Jun-23 10:32N 34°37' E 135°16'0 0.0
2016-Jun-23 09:32N 34°37' E 135°16'0 0.0
2016-Jun-23 07:32N 34°37' E 135°16'0 0.0
2016-Jun-23 05:32N 34°37' E 135°16'0 0.0
2016-Jun-23 04:32N 34°37' E 135°16'0 0.1
2016-Jun-23 03:32N 34°37' E 135°16'0 0.0
2016-Jun-23 02:20N 34°37' E 135°16'0 0.0
2016-Jun-23 01:32N 34°37' E 135°16'0 0.0
2016-Jun-23 00:26N 34°37' E 135°16'0 0.0
2016-Jun-22 23:32N 34°37' E 135°16'0 0.0
2016-Jun-22 22:30N 34°37' E 135°16'0 0.0
2016-Jun-22 21:30N 34°37' E 135°16'0 0.0
2016-Jun-22 20:12N 34°37' E 135°16'0 0.0
2016-Jun-22 19:06N 34°37' E 135°16'2 2.8
2016-Jun-22 18:33N 34°36' E 135°15'  
Track history (hours):
 
Tides and Currents Weather Stations Pressure Air Temp Water Temp Dewpoint Dewpoint Depression Visibility Wind Speed Wind Dir Waves Ship Positions

Houwa Maru

Last reported at 2016-Jun-30 09:33 UTC. Time now 2016-Jul-01 20:56 UTC.
Position N 35°13' E 139°47'.

Length 76 m.

Type: Ship. MMSI: 431500378.

Date/timePositionNaut miles runAvg speedWind from/ knotsBaromVisibWave heightAir tempDewpointWater temp
2016-Jun-30 09:33N 35°13' E 139°47'1110.5
2016-Jun-30 08:32N 35°23' E 139°42'8 8.2
2016-Jun-30 07:33N 35°31' E 139°46'0 0.1
2016-Jun-30 06:31N 35°31' E 139°45'0 0.0
2016-Jun-30 05:28N 35°31' E 139°45'0 0.0
2016-Jun-30 04:31N 35°31' E 139°45'0 0.0
2016-Jun-30 03:31N 35°31' E 139°45'0 0.0
2016-Jun-30 02:31N 35°31' E 139°45'0 0.0
2016-Jun-30 01:31N 35°31' E 139°45'0 0.0
2016-Jun-30 00:31N 35°31' E 139°45'0 0.0
2016-Jun-29 23:31N 35°31' E 139°45'0 0.0
2016-Jun-29 22:31N 35°31' E 139°45'0 0.4
2016-Jun-29 21:33N 35°31' E 139°46'3 2.4
2016-Jun-29 20:31N 35°29' E 139°48'0 0.0
2016-Jun-29 19:31N 35°29' E 139°48'0 0.0
2016-Jun-29 18:31N 35°29' E 139°48'0 0.0
2016-Jun-29 17:31N 35°29' E 139°48'0 0.0
2016-Jun-29 16:31N 35°29' E 139°48'0 0.0
2016-Jun-29 15:31N 35°29' E 139°48'0 0.0
2016-Jun-29 14:31N 35°29' E 139°48'0 0.0
2016-Jun-29 13:31N 35°29' E 139°48'0 0.0
2016-Jun-29 12:31N 35°29' E 139°48'0 0.0
2016-Jun-29 11:31N 35°29' E 139°48'0 0.0
2016-Jun-29 10:31N 35°29' E 139°48'0 0.0
2016-Jun-29 09:31N 35°29' E 139°48'0 0.0
2016-Jun-29 08:34N 35°29' E 139°48'0 0.0
2016-Jun-29 07:31N 35°29' E 139°48'0 0.0
2016-Jun-29 06:31N 35°29' E 139°48'0 0.0
2016-Jun-29 05:31N 35°29' E 139°48'0 0.0
2016-Jun-29 04:31N 35°29' E 139°48'0 0.0
2016-Jun-29 03:31N 35°29' E 139°48'0 0.0
2016-Jun-29 02:32N 35°29' E 139°48'0 0.0
2016-Jun-29 01:33N 35°29' E 139°48'0 0.0
2016-Jun-29 00:33N 35°29' E 139°48'0 0.0
2016-Jun-28 23:32N 35°29' E 139°48'0 0.0
2016-Jun-28 22:32N 35°29' E 139°48'0 0.0
2016-Jun-28 21:32N 35°29' E 139°48'0 0.0
2016-Jun-28 20:32N 35°29' E 139°48'0 0.0
2016-Jun-28 19:32N 35°29' E 139°48'0 0.0
2016-Jun-28 18:32N 35°29' E 139°48'0 0.0
2016-Jun-28 17:32N 35°29' E 139°48'0 0.0
2016-Jun-28 16:32N 35°29' E 139°48'0 0.0
2016-Jun-28 15:32N 35°29' E 139°48'0 0.0
2016-Jun-28 14:32N 35°29' E 139°48'3 3.3
2016-Jun-28 13:33N 35°26' E 139°47'1110.2
2016-Jun-28 12:28N 35°15' E 139°47'242 8.6
2016-Jun-27 08:29N 34°12' E 135°03'2511.4
2016-Jun-27 06:19N 34°35' E 135°14'5 6.9
2016-Jun-27 05:33N 34°40' E 135°13'0 0.0
2016-Jun-27 04:33N 34°40' E 135°13'0 0.0
2016-Jun-27 03:27N 34°40' E 135°13'0 0.0
2016-Jun-27 02:33N 34°40' E 135°13'0 0.0
2016-Jun-27 01:27N 34°40' E 135°13'0 0.0
2016-Jun-27 00:33N 34°40' E 135°13'4 3.9
2016-Jun-26 23:32N 34°37' E 135°16'0 0.1
2016-Jun-26 22:13N 34°37' E 135°16'0 0.0
2016-Jun-26 21:31N 34°37' E 135°16'0 0.0
2016-Jun-26 20:19N 34°37' E 135°16'0 0.0
2016-Jun-26 19:31N 34°37' E 135°16'0 0.0
2016-Jun-26 18:25N 34°37' E 135°16'0 0.0
2016-Jun-26 17:31N 34°37' E 135°16'0 0.0
2016-Jun-26 16:31N 34°37' E 135°16'0 0.0
2016-Jun-26 15:31N 34°37' E 135°16'0 0.0
2016-Jun-26 14:31N 34°37' E 135°16'0 0.0
2016-Jun-26 13:31N 34°37' E 135°16'0 0.0
2016-Jun-26 12:31N 34°37' E 135°16'0 0.0
2016-Jun-26 08:25N 34°37' E 135°16'1 0.6
2016-Jun-26 07:25N 34°37' E 135°16'5 5.3
2016-Jun-26 06:32N 34°40' E 135°11'0 0.0
2016-Jun-26 05:23N 34°40' E 135°11'0 0.0
2016-Jun-26 04:29N 34°40' E 135°11'0 0.0
2016-Jun-26 03:23N 34°40' E 135°11'0 0.0
2016-Jun-26 02:29N 34°40' E 135°11'0 0.0
2016-Jun-26 01:29N 34°40' E 135°11'0 0.0
2016-Jun-26 00:29N 34°40' E 135°11'0 0.0
2016-Jun-25 23:29N 34°40' E 135°11'0 0.0
2016-Jun-25 22:23N 34°40' E 135°11'0 0.0
2016-Jun-25 21:29N 34°40' E 135°11'0 0.0
2016-Jun-25 20:23N 34°40' E 135°11'0 0.0
2016-Jun-25 19:29N 34°40' E 135°11'0 0.0
2016-Jun-25 18:29N 34°40' E 135°11'0 0.0
2016-Jun-25 17:29N 34°40' E 135°11'0 0.0
2016-Jun-25 16:29N 34°40' E 135°11'0 0.0
2016-Jun-25 15:23N 34°40' E 135°11'0 0.0
2016-Jun-25 14:29N 34°40' E 135°11'0 0.0
2016-Jun-25 13:29N 34°40' E 135°11'0 0.0
2016-Jun-25 12:23N 34°40' E 135°11'0 0.0
2016-Jun-25 11:23N 34°40' E 135°11'0 0.0
2016-Jun-25 10:29N 34°40' E 135°11'0 0.0
2016-Jun-25 09:17N 34°40' E 135°11'0 0.0
2016-Jun-25 08:29N 34°40' E 135°11'0 0.0
2016-Jun-25 07:29N 34°40' E 135°11'0 0.0
2016-Jun-25 06:29N 34°40' E 135°11'0 0.0
2016-Jun-25 04:29N 34°40' E 135°11'0 0.0
2016-Jun-25 03:29N 34°40' E 135°11'0 0.0
2016-Jun-25 02:29N 34°40' E 135°11'0 0.0
2016-Jun-25 01:29N 34°40' E 135°11'0 0.0
2016-Jun-25 00:23N 34°40' E 135°11'0 0.0
2016-Jun-24 23:23N 34°40' E 135°11'0 0.0
2016-Jun-24 22:29N 34°40' E 135°11'0 0.0
2016-Jun-24 21:29N 34°40' E 135°11'0 0.0
2016-Jun-24 20:29N 34°40' E 135°11'0 0.0
2016-Jun-24 19:23N 34°40' E 135°11'0 0.0
2016-Jun-24 18:29N 34°40' E 135°11'0 0.0
2016-Jun-24 17:29N 34°40' E 135°11'0 0.0
2016-Jun-24 16:29N 34°40' E 135°11'0 0.0
2016-Jun-24 15:29N 34°40' E 135°11'0 0.0
2016-Jun-24 14:29N 34°40' E 135°11'0 0.0
2016-Jun-24 13:29N 34°40' E 135°11'0 0.0
2016-Jun-24 12:29N 34°40' E 135°11'0 0.0
2016-Jun-24 11:11N 34°40' E 135°11'0 0.0
2016-Jun-24 10:29N 34°40' E 135°11'0 0.0
2016-Jun-24 09:29N 34°40' E 135°11'0 0.0
2016-Jun-24 08:29N 34°40' E 135°11'0 0.0
2016-Jun-24 07:29N 34°40' E 135°11'4 1.4
2016-Jun-24 04:33N 34°37' E 135°15'1 0.7
2016-Jun-24 03:32N 34°37' E 135°16'0 0.0
2016-Jun-24 02:20N 34°37' E 135°16'0 0.0
2016-Jun-24 01:32N 34°37' E 135°16'0 0.0
2016-Jun-24 00:26N 34°37' E 135°16'0 0.0
2016-Jun-23 23:26N 34°37' E 135°16'0 0.0
2016-Jun-23 22:32N 34°37' E 135°16'0 0.0
2016-Jun-23 21:32N 34°37' E 135°16'0 0.0
2016-Jun-23 20:26N 34°37' E 135°16'0 0.0
2016-Jun-23 19:32N 34°37' E 135°16'0 0.0
2016-Jun-23 18:26N 34°37' E 135°16'0 0.0
2016-Jun-23 17:32N 34°37' E 135°16'0 0.0
2016-Jun-23 16:26N 34°37' E 135°16'0 0.0
2016-Jun-23 15:26N 34°37' E 135°16'0 0.0
2016-Jun-23 14:26N 34°37' E 135°16'0 0.0
2016-Jun-23 13:32N 34°37' E 135°16'0 0.0
2016-Jun-23 12:32N 34°37' E 135°16'0 0.0
2016-Jun-23 11:32N 34°37' E 135°16'0 0.0
2016-Jun-23 10:32N 34°37' E 135°16'0 0.0
2016-Jun-23 09:32N 34°37' E 135°16'0 0.0
2016-Jun-23 07:32N 34°37' E 135°16'0 0.0
2016-Jun-23 05:32N 34°37' E 135°16'0 0.0
2016-Jun-23 04:32N 34°37' E 135°16'0 0.1
2016-Jun-23 03:32N 34°37' E 135°16'0 0.0
2016-Jun-23 02:20N 34°37' E 135°16'0 0.0
2016-Jun-23 01:32N 34°37' E 135°16'0 0.0
2016-Jun-23 00:26N 34°37' E 135°16'0 0.0
2016-Jun-22 23:32N 34°37' E 135°16'0 0.0
2016-Jun-22 22:30N 34°37' E 135°16'0 0.0
2016-Jun-22 21:30N 34°37' E 135°16'0 0.0
2016-Jun-22 20:12N 34°37' E 135°16'0 0.0
2016-Jun-22 19:06N 34°37' E 135°16'2 2.8
2016-Jun-22 18:33N 34°36' E 135°15'  

Dump ship's entire track history